Time;durP1;ratioP1;P1;durP2;ratioP2;P2;SDS_P1;SDS_P2;PMS_P1;PMS_P2;Temp;Humidity;BMP_temperature;BMP_pressure;BME280_temperature;BME280_humidity;BME280_pressure;Samples;Min_cycle;Max_cycle;Signal;HPM_P1;HPM_P2
2023/03/11 00:02:20;;;;;;;0.80;0.80;;;;;;;9.51;100.00;95259.06;5006033;28;20096;-66
2023/03/11 00:04:46;;;;;;;0.80;0.80;;;;;;;9.51;100.00;95250.78;4995936;28;20054;-66
2023/03/11 00:07:13;;;;;;;0.70;0.70;;;;;;;9.49;100.00;95246.84;5000372;28;20054;-66
2023/03/11 00:09:40;;;;;;;0.73;0.73;;;;;;;9.28;100.00;95225.69;5001312;28;20112;-60
2023/03/11 00:12:06;;;;;;;0.70;0.70;;;;;;;9.44;100.00;95223.19;5001577;28;20066;-61
2023/03/11 00:14:33;;;;;;;0.75;0.75;;;;;;;9.40;100.00;95216.13;4986239;28;20058;-62
2023/03/11 00:17:00;;;;;;;0.70;0.70;;;;;;;9.28;100.00;95214.63;4986582;28;20054;-66
2023/03/11 00:19:26;;;;;;;0.70;0.70;;;;;;;9.31;100.00;95200.00;4977625;28;20514;-61
2023/03/11 00:21:53;;;;;;;0.70;0.70;;;;;;;9.18;100.00;95187.91;4986685;28;20081;-61
2023/03/11 00:24:19;;;;;;;0.77;0.77;;;;;;;9.30;100.00;95190.16;5001287;28;20540;-66
2023/03/11 00:26:46;;;;;;;0.73;0.73;;;;;;;9.01;100.00;95141.84;4985254;28;20084;-67
2023/03/11 00:29:13;;;;;;;0.77;0.77;;;;;;;9.39;100.00;95187.72;5036274;28;20065;-67
2023/03/11 00:31:39;;;;;;;0.70;0.70;;;;;;;8.90;100.00;95099.75;5025727;28;20072;-61
2023/03/11 00:34:06;;;;;;;0.70;0.70;;;;;;;9.29;100.00;95168.47;5040643;28;20041;-67
2023/03/11 00:36:33;;;;;;;0.70;0.70;;;;;;;7.25;100.00;94842.53;5025398;28;20140;-67
2023/03/11 00:39:03;;;;;;;0.80;0.80;;;;;;;9.31;100.00;95179.91;5040131;28;20050;-61
2023/03/11 00:41:29;;;;;;;0.70;0.70;;;;;;;9.12;100.00;95156.34;5025358;28;20049;-62
2023/03/11 00:43:56;;;;;;;0.80;0.80;;;;;;;8.99;100.00;95147.78;5022977;28;20057;-60
2023/03/11 00:46:23;;;;;;;0.70;0.70;;;;;;;8.96;100.00;95169.91;5025288;28;20553;-60
2023/03/11 00:48:50;;;;;;;0.70;0.70;;;;;;;8.82;100.00;95168.03;5025297;28;20046;-61
2023/03/11 00:51:17;;;;;;;0.80;0.80;;;;;;;8.12;100.00;95038.81;5024900;28;20085;-67
2023/03/11 00:53:44;;;;;;;0.80;0.80;;;;;;;8.88;100.00;95162.88;5039481;28;20099;-65
2023/03/11 00:56:13;;;;;;;0.65;0.65;;;;;;;8.87;100.00;95145.50;4985499;28;20050;-62
2023/03/11 00:58:42;;;;;;;0.70;0.70;;;;;;;8.97;100.00;95152.94;4985565;28;20054;-62
2023/03/11 01:01:14;;;;;;;0.80;0.80;;;;;;;9.00;100.00;95154.09;4985757;28;20050;-61
2023/03/11 01:03:42;;;;;;;0.70;0.70;;;;;;;9.11;100.00;95154.81;4985169;28;20054;-67
2023/03/11 01:06:15;;;;;;;0.70;0.70;;;;;;;9.05;100.00;95157.22;3940830;28;10020730;-60
2023/03/11 01:08:41;;;;;;;0.70;0.70;;;;;;;9.04;100.00;95160.41;3022233;29;10001985;-68
2023/03/11 01:11:08;;;;;;;0.75;0.75;;;;;;;9.01;100.00;95150.13;4959123;28;20054;-61
2023/03/11 01:13:35;;;;;;;0.70;0.70;;;;;;;9.05;100.00;95150.91;4965367;28;20509;-61
2023/03/11 01:16:02;;;;;;;0.80;0.80;;;;;;;9.06;100.00;95141.41;4979989;28;20109;-67
2023/03/11 01:18:29;;;;;;;0.75;0.75;;;;;;;9.02;100.00;95143.44;4965252;28;20059;-65
2023/03/11 01:20:55;;;;;;;0.70;0.70;;;;;;;8.90;100.00;95105.25;4966057;28;20059;-61
2023/03/11 01:23:22;;;;;;;0.80;0.80;;;;;;;9.10;100.00;95114.56;4965966;28;20051;-61
2023/03/11 01:25:49;;;;;;;0.75;0.75;;;;;;;9.18;100.00;95116.09;4965805;28;20074;-66
2023/03/11 01:28:15;;;;;;;0.70;0.70;;;;;;;8.56;100.00;95046.41;4988771;28;20476;-60
2023/03/11 01:30:42;;;;;;;0.77;0.77;;;;;;;9.18;100.00;95121.63;4985129;28;20460;-67
2023/03/11 01:33:14;;;;;;;0.75;0.75;;;;;;;9.24;100.00;95122.75;4983994;28;20066;-60
2023/03/11 01:35:42;;;;;;;0.80;0.80;;;;;;;9.21;100.00;95120.78;4985147;28;20058;-66
2023/03/11 01:38:09;;;;;;;0.70;0.70;;;;;;;9.30;99.89;95118.34;4985440;28;20058;-67
2023/03/11 01:40:39;;;;;;;0.80;0.80;;;;;;;9.36;99.23;95111.16;4984756;28;20054;-63
2023/03/11 01:43:40;;;;;;;0.73;0.73;;;;;;;9.29;99.34;95105.72;4984826;28;20054;-68
2023/03/11 01:46:17;;;;;;;0.70;0.70;;;;;;;9.18;100.00;95107.81;4984670;28;20046;-62
2023/03/11 01:48:47;;;;;;;0.70;0.70;;;;;;;9.03;100.00;95104.38;4985085;28;20062;-67
2023/03/11 01:51:16;;;;;;;0.70;0.70;;;;;;;8.87;100.00;95089.50;4984927;28;20084;-61
2023/03/11 01:53:44;;;;;;;0.70;0.70;;;;;;;8.97;100.00;95094.16;4983810;28;20054;-68
2023/03/11 01:56:12;;;;;;;0.77;0.77;;;;;;;8.50;100.00;95037.00;4983278;28;20514;-62
2023/03/11 01:58:43;;;;;;;0.77;0.77;;;;;;;8.68;100.00;95081.78;4983581;28;20569;-67
2023/03/11 02:01:11;;;;;;;0.73;0.73;;;;;;;8.74;100.00;95091.22;4999832;28;20092;-63
2023/03/11 02:03:40;;;;;;;0.60;0.60;;;;;;;8.87;100.00;95095.81;4985195;28;20051;-68
2023/03/11 02:06:14;;;;;;;0.70;0.70;;;;;;;8.94;100.00;95100.50;4999937;28;20148;-62
2023/03/11 02:08:42;;;;;;;0.77;0.77;;;;;;;8.79;100.00;95093.50;4984797;28;20050;-68
2023/03/11 02:11:14;;;;;;;0.70;0.70;;;;;;;8.89;100.00;95110.00;4984774;28;20520;-68
2023/03/11 02:13:44;;;;;;;0.60;0.60;;;;;;;8.83;100.00;95108.09;4984715;28;20078;-67
2023/03/11 02:16:12;;;;;;;0.70;0.70;;;;;;;8.71;100.00;95105.81;4985204;28;20121;-69
2023/03/11 02:18:41;;;;;;;0.65;0.65;;;;;;;8.77;100.00;95090.41;4984658;28;20509;-62
2023/03/11 02:21:23;;;;;;;0.70;0.70;;;;;;;8.79;100.00;95099.03;4984972;28;20046;-61
2023/03/11 02:24:29;;;;;;;0.70;0.70;;;;;;;8.71;100.00;95089.25;4984458;28;20057;-61
2023/03/11 02:27:08;;;;;;;0.70;0.70;;;;;;;8.35;100.00;95013.44;4982720;28;20054;-62
2023/03/11 02:29:36;;;;;;;0.70;0.70;;;;;;;8.96;100.00;95076.03;4985294;28;20089;-64
2023/03/11 02:32:09;;;;;;;0.70;0.70;;;;;;;8.71;100.00;95036.84;4986770;28;20105;-68
2023/03/11 02:34:38;;;;;;;0.70;0.70;;;;;;;9.16;100.00;95085.31;4988479;28;20051;-68
2023/03/11 02:37:15;;;;;;;0.80;0.80;;;;;;;9.10;100.00;95086.97;4988261;28;20062;-68
2023/03/11 02:39:48;;;;;;;0.70;0.70;;;;;;;8.93;100.00;95093.44;4988079;28;20058;-68
2023/03/11 02:42:27;;;;;;;0.70;0.70;;;;;;;8.72;100.00;95027.34;4988241;28;20168;-62
2023/03/11 02:45:15;;;;;;;0.70;0.70;;;;;;;8.87;100.00;95078.47;4988483;28;20058;-67
2023/03/11 02:47:42;;;;;;;0.68;0.68;;;;;;;8.94;100.00;95061.84;4988322;28;20444;-67
2023/03/11 02:50:12;;;;;;;0.80;0.80;;;;;;;8.64;100.00;95015.59;4988143;28;20100;-62
2023/03/11 02:52:39;;;;;;;0.70;0.70;;;;;;;9.08;99.90;95092.09;4988231;28;20108;-61
2023/03/11 02:55:06;;;;;;;0.70;0.70;;;;;;;9.10;100.00;95078.69;4987789;28;20128;-61
2023/03/11 02:57:33;;;;;;;0.70;0.70;;;;;;;9.16;100.00;95075.06;4987706;28;20085;-68
2023/03/11 03:00:05;;;;;;;0.80;0.80;;;;;;;8.69;100.00;95000.56;4987736;28;20345;-61
2023/03/11 03:02:32;;;;;;;0.70;0.70;;;;;;;8.98;100.00;95046.03;4987862;28;20078;-68
2023/03/11 03:04:58;;;;;;;0.80;0.80;;;;;;;8.39;100.00;94956.28;4986599;28;20133;-62
2023/03/11 03:07:25;;;;;;;0.70;0.70;;;;;;;9.09;100.00;95068.81;4988114;28;20284;-61
2023/03/11 03:09:51;;;;;;;0.70;0.70;;;;;;;8.96;100.00;95053.97;4988211;28;20085;-68
2023/03/11 03:12:18;;;;;;;0.80;0.80;;;;;;;9.10;100.00;95040.00;5002701;28;20414;-68
2023/03/11 03:14:45;;;;;;;0.80;0.80;;;;;;;9.29;100.00;95066.25;4987621;28;20449;-63
2023/03/11 03:17:11;;;;;;;0.80;0.80;;;;;;;9.38;100.00;95052.75;4987579;28;20085;-67
2023/03/11 03:19:38;;;;;;;0.80;0.80;;;;;;;9.00;100.00;95016.03;4987479;28;20127;-62
2023/03/11 03:22:05;;;;;;;0.70;0.70;;;;;;;8.89;100.00;94998.78;5002340;28;20200;-63
2023/03/11 03:24:32;;;;;;;0.70;0.70;;;;;;;9.39;100.00;95055.09;5002160;28;20070;-61
2023/03/11 03:26:58;;;;;;;0.70;0.70;;;;;;;9.51;99.15;95057.34;4987343;28;20137;-62
2023/03/11 03:29:25;;;;;;;0.80;0.80;;;;;;;9.37;98.97;95035.41;4987299;28;20484;-68
2023/03/11 03:31:51;;;;;;;0.70;0.70;;;;;;;9.23;99.22;95024.50;5002394;28;20078;-62
2023/03/11 03:34:18;;;;;;;0.80;0.80;;;;;;;9.49;100.00;95054.19;4986997;28;20116;-68
2023/03/11 03:36:45;;;;;;;0.70;0.70;;;;;;;9.15;100.00;94989.88;4985864;28;20140;-62
2023/03/11 03:39:11;;;;;;;0.80;0.80;;;;;;;9.18;100.00;95005.63;4987189;28;20108;-67
2023/03/11 03:41:38;;;;;;;0.77;0.77;;;;;;;9.69;100.00;95052.38;4986177;28;20138;-68
2023/03/11 03:44:05;;;;;;;0.80;0.80;;;;;;;9.60;100.00;95049.34;4986853;28;20121;-64
2023/03/11 03:46:31;;;;;;;0.70;0.70;;;;;;;9.72;100.00;95051.56;4986210;28;20050;-62
2023/03/11 03:48:58;;;;;;;0.70;0.70;;;;;;;9.64;99.21;95039.00;4987128;28;20073;-68
2023/03/11 03:51:24;;;;;;;0.80;0.80;;;;;;;9.55;100.00;95018.63;4987287;28;20062;-62
2023/03/11 03:53:51;;;;;;;0.80;0.80;;;;;;;9.19;100.00;94968.50;4987275;28;20078;-67
2023/03/11 03:56:18;;;;;;;0.80;0.80;;;;;;;9.60;99.67;95027.22;4985424;28;20090;-62
2023/03/11 03:58:44;;;;;;;0.80;0.80;;;;;;;9.68;98.90;95027.91;4987275;28;20723;-63
2023/03/11 04:01:11;;;;;;;0.77;0.77;;;;;;;9.58;99.11;95029.59;4986975;28;20073;-69
2023/03/11 04:03:38;;;;;;;0.80;0.80;;;;;;;9.48;100.00;95036.06;4986258;28;20527;-61
2023/03/11 04:06:14;;;;;;;0.73;0.73;;;;;;;9.40;100.00;95029.03;4986985;28;20128;-68
2023/03/11 04:08:41;;;;;;;0.80;0.80;;;;;;;9.27;100.00;95003.13;4986211;28;20136;-62
2023/03/11 04:11:08;;;;;;;0.75;0.75;;;;;;;9.36;100.00;95019.25;4986962;28;20050;-62
2023/03/11 04:13:34;;;;;;;0.80;0.80;;;;;;;9.32;100.00;95016.50;4985903;28;20124;-62
2023/03/11 04:16:06;;;;;;;0.70;0.70;;;;;;;9.16;100.00;95008.78;5001504;28;20054;-62
2023/03/11 04:18:33;;;;;;;0.80;0.80;;;;;;;9.03;100.00;94987.59;4986238;28;20082;-61
2023/03/11 04:21:04;;;;;;;0.70;0.70;;;;;;;9.08;100.00;95017.53;4986697;28;20085;-62
2023/03/11 04:23:31;;;;;;;0.70;0.70;;;;;;;8.73;100.00;94980.03;4986276;28;20509;-62
2023/03/11 04:26:00;;;;;;;0.80;0.80;;;;;;;8.21;100.00;94892.97;5001353;28;20128;-62
2023/03/11 04:28:26;;;;;;;0.68;0.68;;;;;;;8.93;100.00;95032.69;4986406;28;20638;-63
2023/03/11 04:30:53;;;;;;;0.77;0.77;;;;;;;9.05;100.00;95029.41;5000608;28;20545;-63
2023/03/11 04:33:20;;;;;;;0.80;0.80;;;;;;;8.98;100.00;95019.22;4985991;28;20050;-62
2023/03/11 04:35:46;;;;;;;0.70;0.70;;;;;;;8.54;100.00;95037.72;4985962;28;20092;-67
2023/03/11 04:38:13;;;;;;;0.60;0.60;;;;;;;8.49;100.00;95044.47;4985877;28;20515;-68
2023/03/11 04:40:40;;;;;;;0.70;0.70;;;;;;;8.64;100.00;95045.16;4985418;28;20378;-68
2023/03/11 04:43:06;;;;;;;0.70;0.70;;;;;;;8.68;100.00;95048.66;4986079;28;20050;-67
2023/03/11 04:45:35;;;;;;;0.70;0.70;;;;;;;8.67;100.00;95027.78;4985269;28;20054;-67
2023/03/11 04:48:01;;;;;;;0.70;0.70;;;;;;;8.91;100.00;95046.13;4985851;28;20524;-61
2023/03/11 04:50:28;;;;;;;0.63;0.63;;;;;;;8.59;100.00;94963.59;4985611;28;20472;-60
2023/03/11 04:52:55;;;;;;;0.77;0.77;;;;;;;9.17;100.00;95020.59;4999726;28;20554;-61
2023/03/11 04:55:23;;;;;;;0.70;0.70;;;;;;;9.41;100.00;95038.88;4985294;28;20128;-61
2023/03/11 04:57:50;;;;;;;0.75;0.75;;;;;;;9.58;100.00;95045.44;4984263;28;20207;-62
2023/03/11 05:00:21;;;;;;;0.80;0.80;;;;;;;9.72;100.00;95046.03;4998175;28;20410;-62
2023/03/11 05:02:48;;;;;;;0.80;0.80;;;;;;;9.91;100.00;95050.91;4981178;28;20074;-66
2023/03/11 05:05:15;;;;;;;0.90;0.90;;;;;;;9.91;100.00;95042.63;4980433;28;20082;-62
2023/03/11 05:07:42;;;;;;;0.70;0.70;;;;;;;9.90;100.00;95052.13;4966658;28;20058;-68
2023/03/11 05:10:09;;;;;;;0.80;0.80;;;;;;;9.66;100.00;95008.97;4965929;28;20105;-68
2023/03/11 05:12:35;;;;;;;0.90;0.90;;;;;;;10.01;99.88;95052.00;4966070;28;20125;-62
2023/03/11 05:15:03;;;;;;;0.80;0.80;;;;;;;9.75;99.26;94995.47;4980556;28;20055;-67
2023/03/11 05:17:29;;;;;;;0.80;0.80;;;;;;;10.26;99.76;95058.00;4966315;28;20419;-67
2023/03/11 05:19:56;;;;;;;0.82;0.82;;;;;;;9.97;99.34;94999.50;4965480;28;20508;-67
2023/03/11 05:22:23;;;;;;;0.80;0.80;;;;;;;9.94;100.00;95003.09;4966266;28;20063;-68
2023/03/11 05:24:49;;;;;;;0.90;0.90;;;;;;;10.11;100.00;95054.66;4980339;28;20517;-68
2023/03/11 05:27:19;;;;;;;0.90;0.90;;;;;;;10.13;100.00;95057.78;4965454;28;20070;-68
2023/03/11 05:29:46;;;;;;;0.90;0.90;;;;;;;10.09;100.00;95070.88;4983411;28;20141;-68
2023/03/11 05:32:13;;;;;;;0.90;0.90;;;;;;;10.15;100.00;95060.91;4984980;28;20062;-61
2023/03/11 05:34:40;;;;;;;0.82;0.82;;;;;;;10.14;100.00;95053.81;4983784;28;20054;-62
2023/03/11 05:37:07;;;;;;;0.80;0.80;;;;;;;10.18;100.00;95071.16;4984966;28;20054;-68
2023/03/11 05:39:36;;;;;;;0.90;0.90;;;;;;;10.28;100.00;95050.88;4982963;28;20062;-69
2023/03/11 05:42:04;;;;;;;0.90;0.90;;;;;;;10.40;100.00;95055.81;4984775;28;20093;-61
2023/03/11 05:44:32;;;;;;;0.90;0.90;;;;;;;10.47;100.00;95047.41;4984498;28;20061;-64
2023/03/11 05:46:59;;;;;;;0.80;0.80;;;;;;;10.15;100.00;94969.63;4999695;28;20112;-62
2023/03/11 05:49:26;;;;;;;0.80;0.80;;;;;;;10.59;100.00;95019.16;4984777;28;20459;-70
2023/03/11 05:51:53;;;;;;;0.80;0.80;;;;;;;10.63;100.00;95039.28;4984432;28;20054;-71
2023/03/11 05:54:23;;;;;;;0.90;0.90;;;;;;;10.73;100.00;95037.53;4984860;28;20050;-62
2023/03/11 05:56:50;;;;;;;0.90;0.90;;;;;;;10.86;100.00;95021.13;4984683;28;20074;-62
2023/03/11 05:59:17;;;;;;;0.80;0.80;;;;;;;10.98;100.00;95026.03;4999459;28;20488;-74
2023/03/11 06:01:44;;;;;;;0.80;0.80;;;;;;;11.11;100.00;95019.47;4984768;28;20498;-72
2023/03/11 06:04:11;;;;;;;0.90;0.90;;;;;;;10.16;100.00;95001.63;4982739;28;20579;-76
2023/03/11 06:06:40;;;;;;;0.88;0.88;;;;;;;9.94;100.00;94953.31;4984446;28;20138;-70
2023/03/11 06:09:12;;;;;;;0.82;0.82;;;;;;;10.50;100.00;95032.75;4999649;28;20112;-74
2023/03/11 06:11:38;;;;;;;0.80;0.80;;;;;;;10.12;100.00;94981.53;4984808;28;20061;-73
2023/03/11 06:14:05;;;;;;;0.80;0.80;;;;;;;9.95;100.00;94971.47;4984953;28;20601;-73
2023/03/11 06:16:32;;;;;;;0.90;0.90;;;;;;;9.91;100.00;94945.84;4984300;28;20425;-73
2023/03/11 06:18:59;;;;;;;0.90;0.90;;;;;;;10.84;100.00;95009.66;4984774;28;20050;-71
2023/03/11 06:21:26;;;;;;;0.90;0.90;;;;;;;11.10;100.00;95014.34;4984521;28;20062;-73
2023/03/11 06:23:53;;;;;;;0.90;0.90;;;;;;;11.34;100.00;95011.13;4984596;28;20050;-73
2023/03/11 06:26:21;;;;;;;0.90;0.90;;;;;;;11.67;100.00;95015.66;4984685;28;20477;-63
2023/03/11 06:28:48;;;;;;;1.00;1.00;;;;;;;11.84;100.00;95020.06;4994712;28;20115;-72
2023/03/11 06:31:24;;;;;;;0.90;0.90;;;;;;;11.99;100.00;95023.34;5003644;28;20520;-72
2023/03/11 06:33:52;;;;;;;0.90;0.90;;;;;;;11.72;100.00;94958.91;5004130;28;20538;-72
2023/03/11 06:36:19;;;;;;;0.90;0.90;;;;;;;12.00;100.00;95013.78;5002636;28;20082;-62
2023/03/11 06:38:47;;;;;;;1.00;1.00;;;;;;;11.62;100.00;95020.88;5003793;28;20081;-63
2023/03/11 06:41:13;;;;;;;1.00;1.00;;;;;;;12.19;100.00;95012.97;5003985;28;20116;-73
2023/03/11 06:43:41;;;;;;;1.00;1.00;;;;;;;12.30;99.71;94971.13;5004221;28;20050;-72
2023/03/11 06:46:18;;;;;;;1.00;1.00;;;;;;;11.83;97.71;94876.25;5003895;28;20085;-76
2023/03/11 06:48:45;;;;;;;1.00;1.00;;;;;;;13.04;95.02;95012.56;5004057;28;20065;-64
2023/03/11 06:51:12;;;;;;;1.20;1.20;;;;;;;12.70;96.52;95006.66;5003839;28;20050;-73
2023/03/11 06:53:39;;;;;;;1.00;1.00;;;;;;;13.21;97.66;95007.78;5004032;28;20093;-71
2023/03/11 06:56:13;;;;;;;1.10;1.10;;;;;;;13.59;94.57;95003.94;5002305;28;20089;-62
2023/03/11 06:58:40;;;;;;;;;;;;;;;14.10;93.64;95012.47;5003569;28;20571;-70
2023/03/11 07:01:21;;;;;;;1.02;1.02;;;;;;;14.15;90.89;95000.75;5003834;28;19969;-72
2023/03/11 07:03:48;;;;;;;1.20;1.20;;;;;;;14.60;89.09;95010.56;5001742;28;20547;-62
2023/03/11 07:06:21;;;;;;;1.20;1.20;;;;;;;15.00;87.56;94994.91;5003437;28;20054;-72
2023/03/11 07:08:50;;;;;;;1.30;1.30;;;;;;;15.43;84.10;95013.81;4996822;28;20046;-71
2023/03/11 07:11:20;;;;;;;1.42;1.42;;;;;;;15.25;82.40;94985.72;4983773;28;20120;-71
2023/03/11 07:13:47;;;;;;;1.30;1.30;;;;;;;15.29;81.81;95002.31;4983306;28;20057;-73
2023/03/11 07:16:17;;;;;;;1.60;1.60;;;;;;;15.58;81.87;94998.13;4985176;28;20105;-64
2023/03/11 07:18:46;;;;;;;1.50;1.50;;;;;;;15.62;82.00;94982.03;4987153;28;20057;-71
2023/03/11 07:21:16;;;;;;;1.40;1.40;;;;;;;15.74;80.96;94988.81;4987205;28;20050;-71
2023/03/11 07:23:43;;;;;;;1.45;1.45;;;;;;;15.55;81.39;94987.09;4986907;28;20124;-62
2023/03/11 07:26:11;;;;;;;1.40;1.40;;;;;;;15.46;79.88;94985.00;4987280;28;20662;-71
2023/03/11 07:28:38;;;;;;;1.30;1.30;;;;;;;14.89;82.04;94990.91;4994149;28;20144;-70
2023/03/11 07:31:18;;;;;;;1.50;1.50;;;;;;;15.46;80.21;94979.41;5006552;28;20401;-69
2023/03/11 07:33:45;;;;;;;1.40;1.40;;;;;;;15.61;77.60;94980.50;5004910;28;20164;-68
2023/03/11 07:36:15;;;;;;;1.40;1.40;;;;;;;15.20;77.68;94916.56;5006352;28;20053;-63
2023/03/11 07:38:42;;;;;;;1.40;1.40;;;;;;;15.73;77.17;94965.69;5004737;28;20054;-62
2023/03/11 07:41:10;;;;;;;1.48;1.48;;;;;;;15.70;74.87;94952.63;5006597;28;20052;-68
2023/03/11 07:43:38;;;;;;;1.50;1.50;;;;;;;14.80;73.50;94829.16;5006660;28;20096;-62
2023/03/11 07:46:08;;;;;;;1.40;1.40;;;;;;;15.79;70.78;94947.13;5021240;28;20124;-62
2023/03/11 07:48:36;;;;;;;1.50;1.50;;;;;;;15.61;69.51;94930.25;5006335;28;20496;-68
2023/03/11 07:51:10;;;;;;;1.50;1.50;;;;;;;15.62;67.31;94954.13;5006159;28;20052;-67
2023/03/11 07:53:39;;;;;;;1.52;1.52;;;;;;;15.54;68.58;94936.09;5006048;28;20056;-67
2023/03/11 07:56:07;;;;;;;1.38;1.38;;;;;;;15.72;68.63;94947.38;5004106;28;20590;-68
2023/03/11 07:58:34;;;;;;;1.30;1.30;;;;;;;15.57;67.20;94940.75;5005825;28;20575;-62
2023/03/11 08:01:15;;;;;;;1.30;1.30;;;;;;;15.50;67.10;94935.44;5006313;28;20100;-67
2023/03/11 08:03:43;;;;;;;1.38;1.38;;;;;;;15.52;66.22;94932.97;5005933;28;20077;-63
2023/03/11 08:06:19;;;;;;;1.38;1.38;;;;;;;15.43;65.21;94940.50;5005922;28;20081;-68
2023/03/11 08:08:48;;;;;;;1.45;1.45;;;;;;;15.35;66.19;94930.78;5005216;28;20061;-62
2023/03/11 08:11:15;;;;;;;1.20;1.20;;;;;;;14.99;65.79;94869.91;5004693;28;20065;-62
2023/03/11 08:13:43;;;;;;;1.30;1.30;;;;;;;15.65;64.56;94942.06;5000607;28;20058;-62
2023/03/11 08:16:13;;;;;;;1.52;1.52;;;;;;;15.97;63.91;94936.06;4986367;28;20081;-68
2023/03/11 08:18:40;;;;;;;1.40;1.40;;;;;;;16.17;62.91;94902.22;4985959;28;20058;-68
2023/03/11 08:21:10;;;;;;;1.45;1.45;;;;;;;16.77;60.57;94947.34;5001346;28;20093;-62
2023/03/11 08:23:37;;;;;;;1.60;1.60;;;;;;;16.59;59.00;94892.94;4985940;28;20050;-68
2023/03/11 08:26:11;;;;;;;1.60;1.60;;;;;;;16.92;56.70;94953.91;5001002;28;20129;-68
2023/03/11 08:28:38;;;;;;;1.83;1.83;;;;;;;16.41;57.66;94925.59;4989763;28;20057;-63
2023/03/11 08:31:15;;;;;;;1.63;1.63;;;;;;;16.53;57.10;94931.09;5005989;28;20144;-67
2023/03/11 08:33:44;;;;;;;1.45;1.45;;;;;;;16.52;56.83;94954.72;5004052;28;20049;-68
2023/03/11 08:36:11;;;;;;;1.73;1.73;;;;;;;16.56;57.10;94944.19;5005773;28;20050;-68
2023/03/11 08:38:38;;;;;;;1.70;1.70;;;;;;;16.31;56.90;94882.84;5003096;28;20050;-61
2023/03/11 08:41:04;;;;;;;1.50;1.50;;;;;;;16.77;56.28;94947.34;5005518;28;20171;-71
2023/03/11 08:43:32;;;;;;;1.60;1.60;;;;;;;16.83;56.50;94942.69;5019213;28;20053;-69
2023/03/11 08:46:00;;;;;;;1.60;1.60;;;;;;;16.53;55.68;94905.94;5005026;28;20050;-69
2023/03/11 08:48:27;;;;;;;1.73;1.73;;;;;;;16.98;55.14;94946.47;5003671;28;20050;-61
2023/03/11 08:50:53;;;;;;;1.55;1.55;;;;;;;16.91;54.98;94943.97;5005516;28;20557;-69
2023/03/11 08:53:21;;;;;;;1.70;1.70;;;;;;;17.15;54.32;94940.13;5004834;28;20119;-69
2023/03/11 08:55:49;;;;;;;1.70;1.70;;;;;;;17.22;54.52;94927.84;5005433;28;20112;-70
2023/03/11 08:58:17;;;;;;;1.80;1.80;;;;;;;17.46;53.65;94937.25;5004930;28;20112;-68
2023/03/11 09:00:44;;;;;;;1.50;1.50;;;;;;;17.26;52.50;94892.13;5005505;28;20045;-60
2023/03/11 09:03:12;;;;;;;1.80;1.80;;;;;;;17.62;52.31;94936.94;5003825;28;20046;-67
2023/03/11 09:05:38;;;;;;;1.80;1.80;;;;;;;17.66;52.03;94929.16;5002584;28;20096;-68
2023/03/11 09:08:05;;;;;;;1.50;1.50;;;;;;;17.36;51.90;94879.66;5004458;28;20054;-61
2023/03/11 09:10:32;;;;;;;1.60;1.60;;;;;;;17.17;52.12;94880.91;5004028;28;20151;-59
2023/03/11 09:12:59;;;;;;;1.70;1.70;;;;;;;17.31;52.41;94928.66;5004154;28;20053;-66
2023/03/11 09:15:25;;;;;;;1.70;1.70;;;;;;;17.35;52.98;94900.50;5004216;28;20484;-59
2023/03/11 09:17:53;;;;;;;1.50;1.50;;;;;;;16.95;51.72;94857.88;5004200;28;20086;-62
2023/03/11 09:20:20;;;;;;;1.40;1.40;;;;;;;17.38;52.44;94910.78;5003420;28;20054;-69
2023/03/11 09:22:47;;;;;;;1.70;1.70;;;;;;;17.47;52.52;94910.78;5004841;28;20116;-69
2023/03/11 09:25:14;;;;;;;1.70;1.70;;;;;;;17.17;52.33;94859.31;5004286;28;20056;-69
2023/03/11 09:27:41;;;;;;;1.70;1.70;;;;;;;16.86;51.15;94799.16;5004734;28;20058;-60
2023/03/11 09:30:09;;;;;;;1.80;1.80;;;;;;;17.81;51.27;94897.22;5002602;28;20061;-62
2023/03/11 09:32:36;;;;;;;1.90;1.90;;;;;;;18.23;50.63;94888.88;5005010;28;20081;-68
2023/03/11 09:35:03;;;;;;;1.65;1.65;;;;;;;18.33;49.68;94887.63;5004420;28;20057;-61
2023/03/11 09:37:30;;;;;;;2.00;2.00;;;;;;;18.40;50.03;94887.28;5019153;28;20119;-64
2023/03/11 09:39:56;;;;;;;1.90;1.90;;;;;;;18.57;48.57;94877.28;5003026;28;20061;-61
2023/03/11 09:42:36;;;;;;;1.80;1.80;;;;;;;18.59;46.90;94838.28;4994752;28;20140;-61
2023/03/11 09:45:16;;;;;;;1.88;1.88;;;;;;;18.75;48.09;94851.91;4984661;28;20085;-61
2023/03/11 09:47:51;;;;;;;2.05;2.05;;;;;;;19.21;47.27;94867.19;4999469;28;20050;-62
2023/03/11 09:50:41;;;;;;;1.90;1.90;;;;;;;19.40;46.34;94856.63;4984287;28;20504;-61
2023/03/11 09:53:29;;;;;;;1.90;1.90;;;;;;;19.42;45.55;94854.91;4999298;28;20058;-63
2023/03/11 09:55:58;;;;;;;1.80;1.80;;;;;;;19.28;45.25;94841.59;4984653;28;20058;-70
2023/03/11 09:58:45;;;;;;;1.88;1.88;;;;;;;18.97;44.66;94863.63;4984763;28;20058;-63
2023/03/11 10:01:34;;;;;;;1.88;1.88;;;;;;;18.71;45.31;94853.34;4984435;28;20050;-61
2023/03/11 10:04:05;;;;;;;1.85;1.85;;;;;;;18.65;45.87;94852.47;4984809;28;20083;-60
2023/03/11 10:06:32;;;;;;;1.80;1.80;;;;;;;18.70;45.33;94854.63;4984145;28;20509;-72
2023/03/11 10:09:10;;;;;;;1.75;1.75;;;;;;;18.58;45.08;94853.59;4984442;28;20592;-60
2023/03/11 10:12:10;;;;;;;1.80;1.80;;;;;;;18.31;45.85;94800.44;4984259;28;20046;-70
2023/03/11 10:14:43;;;;;;;1.85;1.85;;;;;;;18.49;45.51;94848.03;4984198;28;20053;-61
2023/03/11 10:17:36;;;;;;;1.90;1.90;;;;;;;18.46;45.04;94848.19;4999021;28;20138;-60
2023/03/11 10:20:03;;;;;;;1.90;1.90;;;;;;;18.45;45.33;94841.81;4977160;28;20098;-63
2023/03/11 10:22:52;;;;;;;1.90;1.90;;;;;;;18.61;44.92;94840.63;4999316;28;20050;-62
2023/03/11 10:26:14;;;;;;;2.00;2.00;;;;;;;18.74;45.74;94849.59;4998556;28;20528;-60
2023/03/11 10:28:53;;;;;;;1.70;1.70;;;;;;;18.83;44.75;94849.53;4979684;28;20117;-70
2023/03/11 10:31:36;;;;;;;2.00;2.00;;;;;;;18.75;44.02;94790.22;4981813;28;20053;-61
2023/03/11 10:34:33;;;;;;;1.80;1.80;;;;;;;19.43;43.60;94839.59;4984071;28;20062;-61
2023/03/11 10:37:00;;;;;;;2.28;2.28;;;;;;;19.43;42.99;94831.19;4982588;28;20508;-70
2023/03/11 10:39:27;;;;;;;1.80;1.80;;;;;;;19.53;43.09;94838.28;4998402;28;20062;-61
2023/03/11 10:41:58;;;;;;;2.30;2.30;;;;;;;19.61;42.32;94792.94;4984207;28;20076;-61
2023/03/11 10:44:31;;;;;;;2.15;2.15;;;;;;;19.71;41.97;94833.75;4984475;28;20061;-61
2023/03/11 10:46:58;;;;;;;2.00;2.00;;;;;;;19.78;41.62;94802.44;4998917;28;20061;-61
2023/03/11 10:49:24;;;;;;;1.90;1.90;;;;;;;19.90;42.13;94832.28;4983871;28;20113;-63
2023/03/11 10:51:52;;;;;;;2.00;2.00;;;;;;;19.68;41.40;94832.66;4984992;28;20089;-61
2023/03/11 10:54:32;;;;;;;1.88;1.88;;;;;;;19.52;42.01;94835.94;4987917;28;20137;-61
2023/03/11 10:57:04;;;;;;;1.90;1.90;;;;;;;19.45;42.25;94830.69;4987738;28;20054;-62
2023/03/11 10:59:44;;;;;;;2.00;2.00;;;;;;;19.39;42.18;94832.63;4987416;28;20582;-61
2023/03/11 11:02:26;;;;;;;1.80;1.80;;;;;;;19.31;41.80;94821.00;5002260;28;20061;-70
2023/03/11 11:05:05;;;;;;;2.00;2.00;;;;;;;19.22;41.44;94826.63;5002216;28;20495;-61
2023/03/11 11:07:39;;;;;;;1.70;1.70;;;;;;;18.84;41.45;94821.00;4987252;28;20118;-60
2023/03/11 11:10:24;;;;;;;1.80;1.80;;;;;;;18.37;42.35;94843.38;4986141;28;20138;-60
2023/03/11 11:12:55;;;;;;;1.75;1.75;;;;;;;18.04;43.45;94843.34;4987722;28;20046;-69
2023/03/11 11:15:40;;;;;;;1.55;1.55;;;;;;;17.80;44.34;94844.50;4987105;28;20054;-69
2023/03/11 11:18:26;;;;;;;1.90;1.90;;;;;;;17.84;44.63;94845.13;4987558;28;20054;-68
2023/03/11 11:20:55;;;;;;;1.70;1.70;;;;;;;17.32;45.12;94786.72;4985426;28;20242;-60
2023/03/11 11:23:26;;;;;;;1.60;1.60;;;;;;;17.72;44.87;94848.91;4987050;28;20054;-71
2023/03/11 11:26:03;;;;;;;1.60;1.60;;;;;;;17.84;44.89;94850.72;4986910;28;20046;-61
2023/03/11 11:28:32;;;;;;;1.73;1.73;;;;;;;17.78;44.73;94847.78;4986792;28;20492;-61
2023/03/11 11:31:04;;;;;;;1.83;1.83;;;;;;;18.02;44.62;94845.84;5000164;28;20061;-69
2023/03/11 11:33:53;;;;;;;1.70;1.70;;;;;;;18.16;44.77;94847.22;4986652;28;20436;-61
2023/03/11 11:36:24;;;;;;;1.40;1.40;;;;;;;17.91;45.49;94847.56;4987102;28;20093;-69
2023/03/11 11:38:54;;;;;;;1.88;1.88;;;;;;;17.75;46.02;94825.56;4986793;28;20116;-70
2023/03/11 11:41:26;;;;;;;1.83;1.83;;;;;;;17.63;45.30;94840.50;5001285;28;20471;-60
2023/03/11 11:44:02;;;;;;;1.60;1.60;;;;;;;17.98;45.44;94855.66;4986995;28;20086;-60
2023/03/11 11:46:56;;;;;;;1.63;1.63;;;;;;;18.09;45.19;94839.13;4986558;28;20046;-63
2023/03/11 11:49:27;;;;;;;;;;;;;;;18.33;44.86;94842.78;4987216;28;20086;-66